createdAt,value
2022-08-24T00:01:57.593Z,11.45
2022-08-24T00:06:58.414Z,8.70
2022-08-24T00:12:00.617Z,13.90
2022-08-24T00:17:02.262Z,12.93
2022-08-24T00:22:03.338Z,13.27
2022-08-24T00:27:06.507Z,11.65
2022-08-24T00:32:07.634Z,14.68
2022-08-24T00:37:08.386Z,11.68
2022-08-24T00:42:10.426Z,10.57
2022-08-24T00:47:16.997Z,16.05
2022-08-24T00:52:24.802Z,11.95
2022-08-24T00:57:31.514Z,14.52
2022-08-24T01:02:34.905Z,11.07
2022-08-24T01:07:37.676Z,10.23
2022-08-24T01:12:48.168Z,13.73
2022-08-24T01:18:20.389Z,10.85
2022-08-24T01:23:40.381Z,11.27
2022-08-24T01:28:43.952Z,13.35
2022-08-24T01:33:45.420Z,13.60
2022-08-24T01:38:49.133Z,11.60
2022-08-24T01:43:49.846Z,11.98
2022-08-24T01:48:50.566Z,11.65
2022-08-24T01:53:52.604Z,14.52
2022-08-24T01:58:53.664Z,10.60
2022-08-24T02:03:54.555Z,14.32
2022-08-24T02:08:58.347Z,13.45
2022-08-24T02:13:59.411Z,10.38
2022-08-24T02:19:02.204Z,9.95
2022-08-24T02:24:05.313Z,12.05
2022-08-24T02:29:06.108Z,13.90
2022-08-24T02:34:06.948Z,15.30
2022-08-24T02:39:10.050Z,14.98
2022-08-24T02:44:11.879Z,14.70
2022-08-24T02:49:12.900Z,15.98
2022-08-24T02:54:18.343Z,15.82
2022-08-24T02:59:20.665Z,14.20
2022-08-24T03:04:22.775Z,15.15
2022-08-24T03:09:24.842Z,14.45
2022-08-24T03:14:31.674Z,19.73
2022-08-24T03:19:33.245Z,16.23
2022-08-24T03:24:35.393Z,21.33
2022-08-24T03:29:36.685Z,11.73
2022-08-24T03:34:37.898Z,19.17
2022-08-24T03:39:41.066Z,15.23
2022-08-24T03:44:42.193Z,16.05
2022-08-24T03:49:43.319Z,13.18
2022-08-24T03:54:45.421Z,16.02
2022-08-24T03:59:47.518Z,18.30
2022-08-24T04:04:48.711Z,19.77
2022-08-24T04:09:50.796Z,18.75
2022-08-24T04:14:52.788Z,17.55
2022-08-24T04:19:59.408Z,15.10
2022-08-24T04:25:11.454Z,15.63
2022-08-24T04:30:15.048Z,18.27
2022-08-24T04:35:40.321Z,15.50
2022-08-24T04:40:44.560Z,12.90
2022-08-24T04:45:50.591Z,15.85
2022-08-24T04:50:51.783Z,13.10
2022-08-24T04:55:53.894Z,17.23
2022-08-24T05:00:55.429Z,12.88
2022-08-24T05:05:56.328Z,17.58
2022-08-24T05:10:58.665Z,15.38
2022-08-24T05:16:02.383Z,14.48
2022-08-24T05:21:03.317Z,13.60
2022-08-24T05:26:11.966Z,17.23
2022-08-24T05:31:15.675Z,19.88
2022-08-24T05:36:19.040Z,15.82
2022-08-24T05:41:22.635Z,15.05
2022-08-24T05:46:31.638Z,15.73
2022-08-24T05:51:33.817Z,15.45
2022-08-24T05:56:40.841Z,17.02
2022-08-24T06:01:45.334Z,14.63
2022-08-24T06:06:48.653Z,21.08
2022-08-24T06:11:51.819Z,18.40
2022-08-24T06:16:53.130Z,14.13
2022-08-24T06:21:56.441Z,19.63
2022-08-24T06:27:18.778Z,17.42
2022-08-24T06:32:19.677Z,16.58
2022-08-24T06:37:20.766Z,15.93
2022-08-24T06:42:24.842Z,21.92
2022-08-24T06:47:25.554Z,25.60
2022-08-24T06:52:34.224Z,18.08
2022-08-24T06:57:36.283Z,24.58
2022-08-24T07:02:37.482Z,19.00
2022-08-24T07:07:39.345Z,13.98
2022-08-24T07:12:41.608Z,14.85
2022-08-24T07:17:42.781Z,17.65
2022-08-24T07:22:44.761Z,14.77
2022-08-24T07:27:47.858Z,14.30
2022-08-24T07:32:49.637Z,15.68
2022-08-24T07:37:51.105Z,18.00
2022-08-24T07:42:57.970Z,17.30
2022-08-24T07:53:15.035Z,12.68
2022-08-24T07:58:20.268Z,10.23
2022-08-24T08:03:23.448Z,16.30
2022-08-24T08:08:24.790Z,16.88
2022-08-24T08:13:27.257Z,17.52
2022-08-24T08:18:28.767Z,17.15
2022-08-24T08:23:49.227Z,13.90
2022-08-24T08:29:01.039Z,17.45
2022-08-24T08:34:02.032Z,12.40
2022-08-24T08:39:03.358Z,19.25
2022-08-24T08:44:14.692Z,13.77
2022-08-24T08:49:35.199Z,13.35
2022-08-24T08:54:48.706Z,13.95
2022-08-24T09:00:10.470Z,11.95
2022-08-24T09:05:40.777Z,17.92
2022-08-24T09:10:55.603Z,14.90
2022-08-24T09:16:17.136Z,13.93
2022-08-24T09:21:46.524Z,14.18
2022-08-24T09:27:00.874Z,18.88
2022-08-24T09:32:24.947Z,11.00
2022-08-24T09:37:33.812Z,13.18
2022-08-24T09:42:55.792Z,12.52
2022-08-24T09:48:27.638Z,12.95
2022-08-24T09:53:44.657Z,11.65
2022-08-24T09:59:00.494Z,12.07
2022-08-24T10:04:12.535Z,12.35
2022-08-24T10:09:35.055Z,14.25
2022-08-24T10:14:51.283Z,11.32
2022-08-24T10:20:05.171Z,14.90
2022-08-24T10:25:28.501Z,10.95
2022-08-24T10:30:56.314Z,13.23
2022-08-24T10:36:16.308Z,12.70
2022-08-24T10:42:05.968Z,17.80
2022-08-24T10:47:16.635Z,8.80
2022-08-24T10:52:47.811Z,11.55
2022-08-24T10:58:00.741Z,10.75
2022-08-24T11:03:12.733Z,14.25
2022-08-24T11:08:22.334Z,12.18
2022-08-24T11:13:26.002Z,11.27
2022-08-24T11:18:27.687Z,15.00
2022-08-24T11:23:38.007Z,12.70
2022-08-24T11:28:41.283Z,16.50
2022-08-24T11:33:49.606Z,12.60
2022-08-24T11:39:12.809Z,16.52
2022-08-24T11:44:23.626Z,16.05
2022-08-24T11:49:35.816Z,15.43
2022-08-24T11:54:43.723Z,17.58
2022-08-24T11:59:55.004Z,14.20
2022-08-24T12:05:04.137Z,13.98
2022-08-24T12:10:21.848Z,13.88
2022-08-24T12:15:41.565Z,18.25
2022-08-24T12:20:48.145Z,9.75
2022-08-24T12:26:02.874Z,12.43
2022-08-24T12:31:10.346Z,10.60
2022-08-24T12:36:27.930Z,9.25
2022-08-24T12:41:34.397Z,8.95
2022-08-24T12:46:36.049Z,10.82
2022-08-24T12:51:53.337Z,12.27
2022-08-24T12:57:25.344Z,10.80
2022-08-24T13:02:33.556Z,12.68
2022-08-24T13:07:41.213Z,11.63
2022-08-24T13:13:09.299Z,17.70
2022-08-24T13:18:47.736Z,14.77
2022-08-24T13:23:49.404Z,16.02
2022-08-24T13:28:56.623Z,13.30
2022-08-24T13:34:00.727Z,12.63
2022-08-24T13:39:26.134Z,12.00
2022-08-24T13:44:42.417Z,17.45
2022-08-24T13:49:54.204Z,17.80
2022-08-24T13:55:10.285Z,11.35
2022-08-24T14:00:45.981Z,16.27
2022-08-24T14:05:52.064Z,8.68
2022-08-24T14:11:09.825Z,13.73
2022-08-24T14:16:48.809Z,13.25
2022-08-24T14:22:00.728Z,14.07
2022-08-24T14:27:09.162Z,14.88
2022-08-24T14:32:33.255Z,12.13
2022-08-24T14:37:51.336Z,15.60
2022-08-24T14:42:57.998Z,14.15
2022-08-24T14:48:05.775Z,17.65
2022-08-24T14:53:30.320Z,13.65
2022-08-24T14:58:42.488Z,14.00
2022-08-24T15:04:00.751Z,12.05
2022-08-24T15:09:12.475Z,11.07
2022-08-24T15:14:24.201Z,15.73
2022-08-24T15:19:47.454Z,15.27
2022-08-24T15:24:56.101Z,15.50
2022-08-24T15:29:59.557Z,19.05
2022-08-24T15:35:00.272Z,18.95
2022-08-24T15:40:04.234Z,15.63
2022-08-24T15:45:06.427Z,17.67
2022-08-24T15:50:20.399Z,12.07
2022-08-24T15:55:36.000Z,17.88
2022-08-24T16:00:55.852Z,20.25
2022-08-24T16:06:16.765Z,20.10
2022-08-24T16:11:30.335Z,16.88
2022-08-24T16:16:40.083Z,15.63
2022-08-24T16:21:51.986Z,9.98
2022-08-24T16:27:01.286Z,10.57
2022-08-24T16:32:11.055Z,10.50
2022-08-24T16:37:25.245Z,11.57
2022-08-24T16:42:30.054Z,12.13
2022-08-24T16:47:30.811Z,14.75
2022-08-24T16:52:31.574Z,12.93
2022-08-24T16:57:36.458Z,11.65
2022-08-24T17:02:37.718Z,13.05
2022-08-24T17:07:39.008Z,10.00
2022-08-24T17:12:41.063Z,10.57
2022-08-24T17:17:42.050Z,12.02
2022-08-24T17:22:42.827Z,13.82
2022-08-24T17:27:45.324Z,14.52
2022-08-24T17:32:46.228Z,12.30
2022-08-24T17:37:47.350Z,12.57
2022-08-24T17:42:51.682Z,11.23
2022-08-24T17:47:53.514Z,13.40
2022-08-24T17:52:56.251Z,13.80
2022-08-24T17:58:03.062Z,15.05
2022-08-24T18:03:04.022Z,16.02
2022-08-24T18:08:05.936Z,25.65
2022-08-24T18:13:10.070Z,12.73
2022-08-24T18:18:12.290Z,17.67
2022-08-24T18:23:13.093Z,13.57
2022-08-24T18:28:23.907Z,20.13
2022-08-24T18:33:24.792Z,19.02
2022-08-24T18:38:26.771Z,20.45
2022-08-24T18:43:29.289Z,15.15
2022-08-24T18:48:30.088Z,17.20
2022-08-24T18:53:31.169Z,17.92
2022-08-24T18:58:33.203Z,18.98
2022-08-24T19:03:34.374Z,17.45
2022-08-24T19:08:35.102Z,19.23
2022-08-24T19:13:38.452Z,21.27
2022-08-24T19:18:39.369Z,16.83
2022-08-24T19:23:41.021Z,17.10
2022-08-24T19:28:43.107Z,19.92
2022-08-24T19:33:46.788Z,19.08
2022-08-24T19:38:50.732Z,20.33
2022-08-24T19:44:23.560Z,17.40
2022-08-24T19:49:28.471Z,25.48
2022-08-24T19:54:34.136Z,18.92
2022-08-24T19:59:43.042Z,21.98
2022-08-24T20:04:43.718Z,16.65
2022-08-24T20:09:44.547Z,22.95
2022-08-24T20:14:46.778Z,23.55
2022-08-24T20:19:47.665Z,20.52
2022-08-24T20:24:48.431Z,20.30
2022-08-24T20:29:51.003Z,23.25
2022-08-24T20:34:51.725Z,18.30
2022-08-24T20:39:55.353Z,21.92
2022-08-24T20:44:57.438Z,18.63
2022-08-24T20:49:58.181Z,18.42
2022-08-24T20:54:58.960Z,24.00
2022-08-24T21:00:01.032Z,22.27
2022-08-24T21:05:01.877Z,19.75
2022-08-24T21:10:02.625Z,22.60
2022-08-24T21:15:04.961Z,30.25
2022-08-24T21:20:06.252Z,19.20
2022-08-24T21:25:09.370Z,22.10
2022-08-24T21:30:14.677Z,21.33
2022-08-24T21:35:15.565Z,20.55
2022-08-24T21:40:16.378Z,21.52
2022-08-24T21:45:18.785Z,21.42
2022-08-24T21:50:19.640Z,22.90
2022-08-24T21:55:27.718Z,21.00
2022-08-24T22:00:34.194Z,21.55
2022-08-24T22:05:35.546Z,22.50
2022-08-24T22:10:36.404Z,20.58
2022-08-24T22:15:38.495Z,29.05
2022-08-24T22:20:39.271Z,23.02
2022-08-24T22:25:39.955Z,25.95
2022-08-24T22:30:43.083Z,17.23
2022-08-24T22:35:45.408Z,22.33
2022-08-24T22:40:46.466Z,21.02
2022-08-24T22:45:50.476Z,17.23
2022-08-24T22:50:51.158Z,19.50
2022-08-24T22:55:51.834Z,21.45
2022-08-24T23:00:54.098Z,25.25
2022-08-24T23:05:54.806Z,23.38
2022-08-24T23:10:55.492Z,20.50
2022-08-24T23:16:01.341Z,23.70
2022-08-24T23:21:02.093Z,27.67
2022-08-24T23:26:04.165Z,23.65
2022-08-24T23:31:08.087Z,19.67
2022-08-24T23:36:10.058Z,20.23
2022-08-24T23:41:14.394Z,22.63
2022-08-24T23:46:17.975Z,23.33
2022-08-24T23:51:20.763Z,27.67
2022-08-24T23:56:26.052Z,27.27
